sensor_id;sensor_type;location;lat;lon;timestamp;temperature;humidity
827;DHT22;395;48.132;11.608;2023-03-14T00:00:51;13.30;1.00
827;DHT22;395;48.132;11.608;2023-03-14T00:03:17;13.40;1.00
827;DHT22;395;48.132;11.608;2023-03-14T00:05:43;13.30;1.00
827;DHT22;395;48.132;11.608;2023-03-14T00:08:08;13.30;1.00
827;DHT22;395;48.132;11.608;2023-03-14T00:10:36;13.40;1.00
827;DHT22;395;48.132;11.608;2023-03-14T00:13:02;13.30;1.00
827;DHT22;395;48.132;11.608;2023-03-14T00:15:28;13.30;1.00
827;DHT22;395;48.132;11.608;2023-03-14T00:17:53;13.30;1.00
827;DHT22;395;48.132;11.608;2023-03-14T00:20:19;13.30;1.00
827;DHT22;395;48.132;11.608;2023-03-14T00:22:45;13.30;1.00
827;DHT22;395;48.132;11.608;2023-03-14T00:25:11;13.30;1.00
827;DHT22;395;48.132;11.608;2023-03-14T00:27:38;13.30;1.00
827;DHT22;395;48.132;11.608;2023-03-14T00:30:05;13.30;1.00
827;DHT22;395;48.132;11.608;2023-03-14T00:32:33;13.30;1.00
827;DHT22;395;48.132;11.608;2023-03-14T00:34:58;13.30;1.00
827;DHT22;395;48.132;11.608;2023-03-14T00:37:26;13.30;1.00
827;DHT22;395;48.132;11.608;2023-03-14T00:39:52;13.30;1.00
827;DHT22;395;48.132;11.608;2023-03-14T00:42:18;13.20;1.00
827;DHT22;395;48.132;11.608;2023-03-14T00:44:43;13.30;1.00
827;DHT22;395;48.132;11.608;2023-03-14T00:47:09;13.20;1.00
827;DHT22;395;48.132;11.608;2023-03-14T00:49:34;13.20;1.00
827;DHT22;395;48.132;11.608;2023-03-14T00:52:00;13.20;1.00
827;DHT22;395;48.132;11.608;2023-03-14T00:54:26;13.20;1.00
827;DHT22;395;48.132;11.608;2023-03-14T00:56:51;13.20;1.00
827;DHT22;395;48.132;11.608;2023-03-14T00:59:17;13.20;1.00
827;DHT22;395;48.132;11.608;2023-03-14T01:01:43;13.20;1.00
827;DHT22;395;48.132;11.608;2023-03-14T01:04:09;13.20;1.00
827;DHT22;395;48.132;11.608;2023-03-14T01:06:35;13.20;1.00
827;DHT22;395;48.132;11.608;2023-03-14T01:09:01;13.20;1.00
827;DHT22;395;48.132;11.608;2023-03-14T01:11:29;13.20;1.00
827;DHT22;395;48.132;11.608;2023-03-14T01:13:55;13.20;1.20
827;DHT22;395;48.132;11.608;2023-03-14T01:16:22;13.20;1.70
827;DHT22;395;48.132;11.608;2023-03-14T01:18:48;13.20;2.20
827;DHT22;395;48.132;11.608;2023-03-14T01:21:23;13.20;2.70
827;DHT22;395;48.132;11.608;2023-03-14T01:23:50;13.20;3.10
827;DHT22;395;48.132;11.608;2023-03-14T01:26:19;13.20;3.40
827;DHT22;395;48.132;11.608;2023-03-14T01:28:45;13.20;3.70
827;DHT22;395;48.132;11.608;2023-03-14T01:31:12;13.20;4.50
827;DHT22;395;48.132;11.608;2023-03-14T01:33:38;13.10;5.60
827;DHT22;395;48.132;11.608;2023-03-14T01:36:05;13.10;5.60
827;DHT22;395;48.132;11.608;2023-03-14T01:38:32;13.10;6.40
827;DHT22;395;48.132;11.608;2023-03-14T01:40:58;13.00;6.40
827;DHT22;395;48.132;11.608;2023-03-14T01:43:24;13.00;6.90
827;DHT22;395;48.132;11.608;2023-03-14T01:48:37;12.90;7.90
827;DHT22;395;48.132;11.608;2023-03-14T01:51:06;12.90;8.40
827;DHT22;395;48.132;11.608;2023-03-14T01:53:34;12.90;8.50
827;DHT22;395;48.132;11.608;2023-03-14T01:56:00;12.90;9.60
827;DHT22;395;48.132;11.608;2023-03-14T01:58:27;12.90;9.90
827;DHT22;395;48.132;11.608;2023-03-14T02:00:57;12.90;10.30
827;DHT22;395;48.132;11.608;2023-03-14T02:03:24;12.80;10.60
827;DHT22;395;48.132;11.608;2023-03-14T02:05:51;12.80;10.70
827;DHT22;395;48.132;11.608;2023-03-14T02:08:20;12.70;10.30
827;DHT22;395;48.132;11.608;2023-03-14T02:10:48;12.40;12.20
827;DHT22;395;48.132;11.608;2023-03-14T02:13:17;12.30;12.50
827;DHT22;395;48.132;11.608;2023-03-14T02:15:44;12.40;12.60
827;DHT22;395;48.132;11.608;2023-03-14T02:18:10;12.30;12.50
827;DHT22;395;48.132;11.608;2023-03-14T02:23:24;12.00;12.30
827;DHT22;395;48.132;11.608;2023-03-14T02:26:01;11.90;12.20
827;DHT22;395;48.132;11.608;2023-03-14T02:28:28;11.70;13.20
827;DHT22;395;48.132;11.608;2023-03-14T02:30:53;11.80;13.70
827;DHT22;395;48.132;11.608;2023-03-14T02:33:20;11.70;14.10
827;DHT22;395;48.132;11.608;2023-03-14T02:35:52;11.80;13.80
827;DHT22;395;48.132;11.608;2023-03-14T02:38:35;11.90;14.00
827;DHT22;395;48.132;11.608;2023-03-14T02:41:02;11.80;13.40
827;DHT22;395;48.132;11.608;2023-03-14T02:43:28;11.80;13.50
827;DHT22;395;48.132;11.608;2023-03-14T02:45:54;11.90;13.70
827;DHT22;395;48.132;11.608;2023-03-14T02:48:35;11.90;14.00
827;DHT22;395;48.132;11.608;2023-03-14T02:51:03;12.00;13.70
827;DHT22;395;48.132;11.608;2023-03-14T02:53:36;12.00;13.50
827;DHT22;395;48.132;11.608;2023-03-14T02:56:02;12.00;13.10
827;DHT22;395;48.132;11.608;2023-03-14T02:58:29;12.00;12.90
827;DHT22;395;48.132;11.608;2023-03-14T03:00:55;12.10;13.10
827;DHT22;395;48.132;11.608;2023-03-14T03:03:20;12.10;12.90
827;DHT22;395;48.132;11.608;2023-03-14T03:05:50;12.00;12.30
827;DHT22;395;48.132;11.608;2023-03-14T03:08:17;12.10;12.40
827;DHT22;395;48.132;11.608;2023-03-14T03:10:42;12.00;12.30
827;DHT22;395;48.132;11.608;2023-03-14T03:13:08;12.00;12.30
827;DHT22;395;48.132;11.608;2023-03-14T03:15:34;12.10;11.70
827;DHT22;395;48.132;11.608;2023-03-14T03:17:59;12.10;11.20
827;DHT22;395;48.132;11.608;2023-03-14T03:20:25;12.10;10.80
827;DHT22;395;48.132;11.608;2023-03-14T03:22:51;12.10;11.10
827;DHT22;395;48.132;11.608;2023-03-14T03:25:17;12.10;10.70
827;DHT22;395;48.132;11.608;2023-03-14T03:27:42;12.10;10.60
827;DHT22;395;48.132;11.608;2023-03-14T03:30:08;12.10;9.90
827;DHT22;395;48.132;11.608;2023-03-14T03:32:34;12.10;9.80
827;DHT22;395;48.132;11.608;2023-03-14T03:35:01;12.00;9.70
827;DHT22;395;48.132;11.608;2023-03-14T03:37:26;12.00;9.60
827;DHT22;395;48.132;11.608;2023-03-14T03:39:52;12.00;9.60
827;DHT22;395;48.132;11.608;2023-03-14T03:42:18;12.00;9.20
827;DHT22;395;48.132;11.608;2023-03-14T03:44:44;12.00;9.70
827;DHT22;395;48.132;11.608;2023-03-14T03:47:10;11.90;8.30
827;DHT22;395;48.132;11.608;2023-03-14T03:49:36;12.00;8.60
827;DHT22;395;48.132;11.608;2023-03-14T03:52:01;12.00;9.20
827;DHT22;395;48.132;11.608;2023-03-14T03:54:27;11.90;8.90
827;DHT22;395;48.132;11.608;2023-03-14T03:56:54;11.90;8.60
827;DHT22;395;48.132;11.608;2023-03-14T03:59:20;11.90;9.10
827;DHT22;395;48.132;11.608;2023-03-14T04:01:46;11.80;8.50
827;DHT22;395;48.132;11.608;2023-03-14T04:04:12;11.80;8.30
827;DHT22;395;48.132;11.608;2023-03-14T04:06:38;11.80;7.40
827;DHT22;395;48.132;11.608;2023-03-14T04:09:04;11.80;6.90
827;DHT22;395;48.132;11.608;2023-03-14T04:11:29;11.70;6.60
827;DHT22;395;48.132;11.608;2023-03-14T04:13:55;11.70;6.70
827;DHT22;395;48.132;11.608;2023-03-14T04:16:23;11.70;6.60
827;DHT22;395;48.132;11.608;2023-03-14T04:18:50;11.70;5.60
827;DHT22;395;48.132;11.608;2023-03-14T04:21:16;11.60;5.90
827;DHT22;395;48.132;11.608;2023-03-14T04:23:41;11.60;6.10
827;DHT22;395;48.132;11.608;2023-03-14T04:26:07;11.60;5.40
827;DHT22;395;48.132;11.608;2023-03-14T04:28:33;11.50;5.60
827;DHT22;395;48.132;11.608;2023-03-14T04:30:58;11.50;6.00
827;DHT22;395;48.132;11.608;2023-03-14T04:33:24;11.50;5.90
827;DHT22;395;48.132;11.608;2023-03-14T04:35:53;11.50;5.90
827;DHT22;395;48.132;11.608;2023-03-14T04:38:19;11.50;6.00
827;DHT22;395;48.132;11.608;2023-03-14T04:40:45;11.40;4.70
827;DHT22;395;48.132;11.608;2023-03-14T04:43:11;11.40;4.50
827;DHT22;395;48.132;11.608;2023-03-14T04:45:40;11.40;5.20
827;DHT22;395;48.132;11.608;2023-03-14T04:48:06;11.30;3.10
827;DHT22;395;48.132;11.608;2023-03-14T04:50:32;11.30;4.90
827;DHT22;395;48.132;11.608;2023-03-14T04:52:57;11.30;4.70
827;DHT22;395;48.132;11.608;2023-03-14T04:55:23;11.30;5.30
827;DHT22;395;48.132;11.608;2023-03-14T04:57:49;11.20;4.30
827;DHT22;395;48.132;11.608;2023-03-14T05:00:14;11.20;3.90
827;DHT22;395;48.132;11.608;2023-03-14T05:02:43;11.30;4.40
827;DHT22;395;48.132;11.608;2023-03-14T05:05:08;11.20;4.30
827;DHT22;395;48.132;11.608;2023-03-14T05:07:34;11.20;4.30
827;DHT22;395;48.132;11.608;2023-03-14T05:09:59;11.30;4.40
827;DHT22;395;48.132;11.608;2023-03-14T05:12:25;11.20;4.30
827;DHT22;395;48.132;11.608;2023-03-14T05:14:51;11.20;4.30
827;DHT22;395;48.132;11.608;2023-03-14T05:17:16;11.30;4.90
827;DHT22;395;48.132;11.608;2023-03-14T05:19:43;11.30;4.60
827;DHT22;395;48.132;11.608;2023-03-14T05:22:09;11.30;4.40
827;DHT22;395;48.132;11.608;2023-03-14T05:24:35;11.30;4.40
827;DHT22;395;48.132;11.608;2023-03-14T05:27:01;11.20;4.30
827;DHT22;395;48.132;11.608;2023-03-14T05:29:26;11.30;4.40
827;DHT22;395;48.132;11.608;2023-03-14T05:31:52;11.30;4.40
827;DHT22;395;48.132;11.608;2023-03-14T05:34:17;11.20;4.10
827;DHT22;395;48.132;11.608;2023-03-14T05:36:43;11.10;3.90
827;DHT22;395;48.132;11.608;2023-03-14T05:39:09;11.20;4.70
827;DHT22;395;48.132;11.608;2023-03-14T05:41:34;11.20;4.70
827;DHT22;395;48.132;11.608;2023-03-14T05:44:01;11.20;4.30
827;DHT22;395;48.132;11.608;2023-03-14T05:46:26;11.10;4.30
827;DHT22;395;48.132;11.608;2023-03-14T05:48:52;11.10;3.70
827;DHT22;395;48.132;11.608;2023-03-14T05:51:17;11.10;3.20
827;DHT22;395;48.132;11.608;2023-03-14T05:53:43;11.00;4.20
827;DHT22;395;48.132;11.608;2023-03-14T05:56:09;11.00;4.20
827;DHT22;395;48.132;11.608;2023-03-14T05:58:35;11.10;4.30
827;DHT22;395;48.132;11.608;2023-03-14T06:01:04;11.10;4.30
827;DHT22;395;48.132;11.608;2023-03-14T06:03:31;11.10;3.10
827;DHT22;395;48.132;11.608;2023-03-14T06:05:57;11.10;4.30
827;DHT22;395;48.132;11.608;2023-03-14T06:08:23;11.10;4.20
827;DHT22;395;48.132;11.608;2023-03-14T06:10:49;11.00;4.20
827;DHT22;395;48.132;11.608;2023-03-14T06:13:14;11.10;4.20
827;DHT22;395;48.132;11.608;2023-03-14T06:15:41;11.10;3.80
827;DHT22;395;48.132;11.608;2023-03-14T06:18:07;11.20;3.80
827;DHT22;395;48.132;11.608;2023-03-14T06:20:35;11.20;4.30
827;DHT22;395;48.132;11.608;2023-03-14T06:23:00;11.30;4.10
827;DHT22;395;48.132;11.608;2023-03-14T06:25:26;11.30;3.40
827;DHT22;395;48.132;11.608;2023-03-14T06:27:52;11.30;3.20
827;DHT22;395;48.132;11.608;2023-03-14T06:30:17;11.20;3.30
827;DHT22;395;48.132;11.608;2023-03-14T06:32:43;11.20;3.10
827;DHT22;395;48.132;11.608;2023-03-14T06:35:09;11.20;3.30
827;DHT22;395;48.132;11.608;2023-03-14T06:37:34;11.30;3.80
827;DHT22;395;48.132;11.608;2023-03-14T06:40:00;11.40;3.10
827;DHT22;395;48.132;11.608;2023-03-14T06:42:25;11.40;2.50
827;DHT22;395;48.132;11.608;2023-03-14T06:44:51;11.40;2.90
827;DHT22;395;48.132;11.608;2023-03-14T06:47:17;11.50;2.80
827;DHT22;395;48.132;11.608;2023-03-14T06:49:42;11.50;2.70
827;DHT22;395;48.132;11.608;2023-03-14T06:52:08;11.50;2.70
827;DHT22;395;48.132;11.608;2023-03-14T06:54:34;11.50;2.50
827;DHT22;395;48.132;11.608;2023-03-14T06:56:59;11.60;2.10
827;DHT22;395;48.132;11.608;2023-03-14T06:59:25;11.70;2.50
827;DHT22;395;48.132;11.608;2023-03-14T07:01:51;11.60;2.30
827;DHT22;395;48.132;11.608;2023-03-14T07:04:17;11.70;2.00
827;DHT22;395;48.132;11.608;2023-03-14T07:06:43;11.70;2.00
827;DHT22;395;48.132;11.608;2023-03-14T07:09:13;11.70;1.90
827;DHT22;395;48.132;11.608;2023-03-14T07:11:39;11.70;1.90
827;DHT22;395;48.132;11.608;2023-03-14T07:14:04;11.70;1.70
827;DHT22;395;48.132;11.608;2023-03-14T07:16:30;11.70;1.50
827;DHT22;395;48.132;11.608;2023-03-14T07:18:58;11.70;2.00
827;DHT22;395;48.132;11.608;2023-03-14T07:21:24;11.70;1.60
827;DHT22;395;48.132;11.608;2023-03-14T07:23:50;11.70;1.40
827;DHT22;395;48.132;11.608;2023-03-14T07:26:15;11.70;1.60
827;DHT22;395;48.132;11.608;2023-03-14T07:28:41;11.70;1.30
827;DHT22;395;48.132;11.608;2023-03-14T07:31:07;11.70;1.90
827;DHT22;395;48.132;11.608;2023-03-14T07:33:33;11.70;1.30
827;DHT22;395;48.132;11.608;2023-03-14T07:35:59;11.70;1.50
827;DHT22;395;48.132;11.608;2023-03-14T07:38:25;11.80;1.00
827;DHT22;395;48.132;11.608;2023-03-14T07:41:00;11.80;1.00
827;DHT22;395;48.132;11.608;2023-03-14T07:43:26;11.80;1.00
827;DHT22;395;48.132;11.608;2023-03-14T07:45:52;11.80;1.00
827;DHT22;395;48.132;11.608;2023-03-14T07:48:18;11.70;1.00
827;DHT22;395;48.132;11.608;2023-03-14T07:50:43;11.80;1.00
827;DHT22;395;48.132;11.608;2023-03-14T07:53:09;11.80;1.00
827;DHT22;395;48.132;11.608;2023-03-14T07:55:35;11.80;1.00
827;DHT22;395;48.132;11.608;2023-03-14T07:58:00;11.80;1.00
827;DHT22;395;48.132;11.608;2023-03-14T08:00:27;11.80;1.00
827;DHT22;395;48.132;11.608;2023-03-14T08:02:52;11.80;1.00
827;DHT22;395;48.132;11.608;2023-03-14T08:05:18;11.80;1.00
827;DHT22;395;48.132;11.608;2023-03-14T08:07:44;11.90;1.00
827;DHT22;395;48.132;11.608;2023-03-14T08:10:10;11.90;1.00
827;DHT22;395;48.132;11.608;2023-03-14T08:12:36;11.80;1.00
827;DHT22;395;48.132;11.608;2023-03-14T08:15:01;11.80;1.00
827;DHT22;395;48.132;11.608;2023-03-14T08:17:27;11.80;1.00
827;DHT22;395;48.132;11.608;2023-03-14T08:19:53;11.80;1.00
827;DHT22;395;48.132;11.608;2023-03-14T08:22:18;11.80;1.00
827;DHT22;395;48.132;11.608;2023-03-14T08:24:44;11.80;1.00
827;DHT22;395;48.132;11.608;2023-03-14T08:27:10;11.80;1.00
827;DHT22;395;48.132;11.608;2023-03-14T08:29:35;11.80;1.00
827;DHT22;395;48.132;11.608;2023-03-14T08:32:01;11.80;1.00
827;DHT22;395;48.132;11.608;2023-03-14T08:34:27;11.90;1.00
827;DHT22;395;48.132;11.608;2023-03-14T08:36:52;11.90;1.00
827;DHT22;395;48.132;11.608;2023-03-14T08:39:18;11.90;1.00
827;DHT22;395;48.132;11.608;2023-03-14T08:41:43;11.90;1.00
827;DHT22;395;48.132;11.608;2023-03-14T08:44:10;11.70;1.00
827;DHT22;395;48.132;11.608;2023-03-14T08:46:39;11.70;1.00
827;DHT22;395;48.132;11.608;2023-03-14T08:49:04;11.80;1.00
827;DHT22;395;48.132;11.608;2023-03-14T08:51:30;11.90;1.00
827;DHT22;395;48.132;11.608;2023-03-14T08:53:56;11.90;1.00
827;DHT22;395;48.132;11.608;2023-03-14T08:56:21;11.80;1.00
827;DHT22;395;48.132;11.608;2023-03-14T08:58:47;11.90;1.00
827;DHT22;395;48.132;11.608;2023-03-14T09:01:13;11.90;1.00
827;DHT22;395;48.132;11.608;2023-03-14T09:03:38;12.00;1.00
827;DHT22;395;48.132;11.608;2023-03-14T09:06:06;12.00;1.00
827;DHT22;395;48.132;11.608;2023-03-14T09:08:32;12.00;1.00
827;DHT22;395;48.132;11.608;2023-03-14T09:10:59;11.90;1.00
827;DHT22;395;48.132;11.608;2023-03-14T09:13:25;12.00;1.00
827;DHT22;395;48.132;11.608;2023-03-14T09:15:51;12.10;1.00
827;DHT22;395;48.132;11.608;2023-03-14T09:18:17;12.10;1.00
827;DHT22;395;48.132;11.608;2023-03-14T09:20:43;12.20;1.00
827;DHT22;395;48.132;11.608;2023-03-14T09:23:09;12.30;1.00
827;DHT22;395;48.132;11.608;2023-03-14T09:25:34;12.30;1.00
827;DHT22;395;48.132;11.608;2023-03-14T09:28:00;12.30;1.00
827;DHT22;395;48.132;11.608;2023-03-14T09:30:25;12.40;1.00
827;DHT22;395;48.132;11.608;2023-03-14T09:32:51;12.50;1.00
827;DHT22;395;48.132;11.608;2023-03-14T09:35:17;12.50;1.00
827;DHT22;395;48.132;11.608;2023-03-14T09:37:43;12.50;1.00
827;DHT22;395;48.132;11.608;2023-03-14T09:40:19;12.50;1.00
827;DHT22;395;48.132;11.608;2023-03-14T09:42:48;12.50;1.00
827;DHT22;395;48.132;11.608;2023-03-14T09:45:26;12.60;1.00
827;DHT22;395;48.132;11.608;2023-03-14T09:47:53;12.60;1.00
827;DHT22;395;48.132;11.608;2023-03-14T09:50:20;12.60;1.00
827;DHT22;395;48.132;11.608;2023-03-14T09:52:49;12.60;1.00
827;DHT22;395;48.132;11.608;2023-03-14T09:55:18;12.60;1.00
827;DHT22;395;48.132;11.608;2023-03-14T09:57:45;12.60;1.00
827;DHT22;395;48.132;11.608;2023-03-14T10:00:23;12.60;1.00
827;DHT22;395;48.132;11.608;2023-03-14T10:02:53;12.70;1.00
827;DHT22;395;48.132;11.608;2023-03-14T10:05:22;12.70;1.00
827;DHT22;395;48.132;11.608;2023-03-14T10:07:48;12.70;1.00
827;DHT22;395;48.132;11.608;2023-03-14T10:10:22;12.80;1.00
827;DHT22;395;48.132;11.608;2023-03-14T10:12:56;12.80;1.00
827;DHT22;395;48.132;11.608;2023-03-14T10:15:29;12.80;1.00
827;DHT22;395;48.132;11.608;2023-03-14T10:17:55;12.80;1.00
827;DHT22;395;48.132;11.608;2023-03-14T10:20:35;12.90;1.00
827;DHT22;395;48.132;11.608;2023-03-14T10:25:34;12.80;1.00
827;DHT22;395;48.132;11.608;2023-03-14T10:28:00;12.90;1.00
827;DHT22;395;48.132;11.608;2023-03-14T10:33:34;12.90;1.00
827;DHT22;395;48.132;11.608;2023-03-14T10:36:02;12.90;1.00
827;DHT22;395;48.132;11.608;2023-03-14T10:38:30;12.70;1.00
827;DHT22;395;48.132;11.608;2023-03-14T10:40:56;12.60;1.00
827;DHT22;395;48.132;11.608;2023-03-14T10:43:26;12.80;1.00
827;DHT22;395;48.132;11.608;2023-03-14T10:46:15;12.90;1.00
827;DHT22;395;48.132;11.608;2023-03-14T10:48:42;12.90;1.00
827;DHT22;395;48.132;11.608;2023-03-14T10:51:18;13.00;1.00
827;DHT22;395;48.132;11.608;2023-03-14T10:53:45;13.10;1.00
827;DHT22;395;48.132;11.608;2023-03-14T10:56:13;13.00;1.00
827;DHT22;395;48.132;11.608;2023-03-14T10:58:45;13.00;1.00
827;DHT22;395;48.132;11.608;2023-03-14T11:06:48;12.70;1.00
827;DHT22;395;48.132;11.608;2023-03-14T11:09:22;12.70;1.00
827;DHT22;395;48.132;11.608;2023-03-14T11:11:48;12.80;1.00
827;DHT22;395;48.132;11.608;2023-03-14T11:17:00;12.80;1.00
827;DHT22;395;48.132;11.608;2023-03-14T11:22:12;12.80;1.00
827;DHT22;395;48.132;11.608;2023-03-14T11:24:47;12.90;1.00
827;DHT22;395;48.132;11.608;2023-03-14T11:32:43;13.00;1.00
827;DHT22;395;48.132;11.608;2023-03-14T11:38:24;12.80;1.00
827;DHT22;395;48.132;11.608;2023-03-14T11:40:56;12.80;1.00
827;DHT22;395;48.132;11.608;2023-03-14T11:43:33;12.90;1.00
827;DHT22;395;48.132;11.608;2023-03-14T11:46:10;12.90;1.00
827;DHT22;395;48.132;11.608;2023-03-14T11:48:56;12.90;1.00
827;DHT22;395;48.132;11.608;2023-03-14T11:51:28;13.10;1.00
827;DHT22;395;48.132;11.608;2023-03-14T11:56:43;13.10;1.00
827;DHT22;395;48.132;11.608;2023-03-14T11:59:31;13.10;1.00
827;DHT22;395;48.132;11.608;2023-03-14T12:07:21;13.00;1.00
827;DHT22;395;48.132;11.608;2023-03-14T12:09:50;13.10;1.00
827;DHT22;395;48.132;11.608;2023-03-14T12:12:22;13.10;1.00
827;DHT22;395;48.132;11.608;2023-03-14T12:14:59;13.10;1.00
827;DHT22;395;48.132;11.608;2023-03-14T12:17:41;13.00;1.00
827;DHT22;395;48.132;11.608;2023-03-14T12:23:01;13.10;1.00
827;DHT22;395;48.132;11.608;2023-03-14T12:25:32;13.10;1.00
827;DHT22;395;48.132;11.608;2023-03-14T12:28:18;12.90;1.00
827;DHT22;395;48.132;11.608;2023-03-14T12:30:44;13.00;1.00
827;DHT22;395;48.132;11.608;2023-03-14T12:35:48;13.00;1.00
827;DHT22;395;48.132;11.608;2023-03-14T12:38:27;13.00;1.00
827;DHT22;395;48.132;11.608;2023-03-14T12:41:29;12.90;1.00
827;DHT22;395;48.132;11.608;2023-03-14T12:46:57;13.20;1.00
827;DHT22;395;48.132;11.608;2023-03-14T12:49:29;13.10;1.00
827;DHT22;395;48.132;11.608;2023-03-14T12:52:00;13.10;1.00
827;DHT22;395;48.132;11.608;2023-03-14T12:54:46;13.10;1.00
827;DHT22;395;48.132;11.608;2023-03-14T12:57:36;13.00;1.00
827;DHT22;395;48.132;11.608;2023-03-14T13:02:44;13.00;1.00
827;DHT22;395;48.132;11.608;2023-03-14T13:05:22;13.10;1.00
827;DHT22;395;48.132;11.608;2023-03-14T13:12:52;13.00;1.00
827;DHT22;395;48.132;11.608;2023-03-14T13:15:41;13.00;1.00
827;DHT22;395;48.132;11.608;2023-03-14T13:18:27;13.00;1.00
827;DHT22;395;48.132;11.608;2023-03-14T13:20:59;13.00;1.00
827;DHT22;395;48.132;11.608;2023-03-14T13:23:30;12.90;1.00
827;DHT22;395;48.132;11.608;2023-03-14T13:25:56;12.90;1.00
827;DHT22;395;48.132;11.608;2023-03-14T13:28:22;12.80;1.00
827;DHT22;395;48.132;11.608;2023-03-14T13:30:50;12.90;1.00
827;DHT22;395;48.132;11.608;2023-03-14T13:33:22;12.90;1.00
827;DHT22;395;48.132;11.608;2023-03-14T13:35:57;12.90;1.00
827;DHT22;395;48.132;11.608;2023-03-14T13:38:26;12.80;1.00
827;DHT22;395;48.132;11.608;2023-03-14T13:40:54;12.50;1.00
827;DHT22;395;48.132;11.608;2023-03-14T13:43:28;12.50;1.00
827;DHT22;395;48.132;11.608;2023-03-14T13:48:29;12.30;1.00
827;DHT22;395;48.132;11.608;2023-03-14T13:50:56;12.30;1.00
827;DHT22;395;48.132;11.608;2023-03-14T13:53:24;12.30;1.00
827;DHT22;395;48.132;11.608;2023-03-14T13:55:51;12.30;1.00
827;DHT22;395;48.132;11.608;2023-03-14T13:58:28;12.20;1.00
827;DHT22;395;48.132;11.608;2023-03-14T14:03:51;11.90;1.00
827;DHT22;395;48.132;11.608;2023-03-14T14:06:53;11.70;1.00
827;DHT22;395;48.132;11.608;2023-03-14T14:09:25;11.60;1.00
827;DHT22;395;48.132;11.608;2023-03-14T14:14:42;11.30;1.00
827;DHT22;395;48.132;11.608;2023-03-14T14:17:12;11.30;1.00
827;DHT22;395;48.132;11.608;2023-03-14T14:19:40;11.30;1.00
827;DHT22;395;48.132;11.608;2023-03-14T14:22:09;11.30;1.00
827;DHT22;395;48.132;11.608;2023-03-14T14:24:36;11.10;1.00
827;DHT22;395;48.132;11.608;2023-03-14T14:27:14;11.10;1.20
827;DHT22;395;48.132;11.608;2023-03-14T14:29:40;10.90;2.10
827;DHT22;395;48.132;11.608;2023-03-14T14:32:13;10.70;2.20
827;DHT22;395;48.132;11.608;2023-03-14T14:34:47;10.90;4.10
827;DHT22;395;48.132;11.608;2023-03-14T14:39:49;10.60;3.90
827;DHT22;395;48.132;11.608;2023-03-14T14:42:18;10.60;3.90
827;DHT22;395;48.132;11.608;2023-03-14T14:44:44;10.60;3.90
827;DHT22;395;48.132;11.608;2023-03-14T14:47:15;10.50;4.20
827;DHT22;395;48.132;11.608;2023-03-14T14:49:43;10.40;3.30
827;DHT22;395;48.132;11.608;2023-03-14T14:52:15;10.40;3.80
827;DHT22;395;48.132;11.608;2023-03-14T14:54:52;10.30;3.80
827;DHT22;395;48.132;11.608;2023-03-14T14:57:24;10.20;1.90
827;DHT22;395;48.132;11.608;2023-03-14T14:59:55;9.90;1.30
827;DHT22;395;48.132;11.608;2023-03-14T15:02:27;9.90;4.00
827;DHT22;395;48.132;11.608;2023-03-14T15:04:53;9.90;3.20
827;DHT22;395;48.132;11.608;2023-03-14T15:07:19;10.10;3.20
827;DHT22;395;48.132;11.608;2023-03-14T15:09:45;10.00;2.30
827;DHT22;395;48.132;11.608;2023-03-14T15:12:10;10.00;2.60
827;DHT22;395;48.132;11.608;2023-03-14T15:14:36;10.00;3.50
827;DHT22;395;48.132;11.608;2023-03-14T15:17:02;10.10;3.60
827;DHT22;395;48.132;11.608;2023-03-14T15:19:28;10.10;2.20
827;DHT22;395;48.132;11.608;2023-03-14T15:21:58;10.10;2.20
827;DHT22;395;48.132;11.608;2023-03-14T15:24:23;10.10;1.60
827;DHT22;395;48.132;11.608;2023-03-14T15:26:50;10.10;2.20
827;DHT22;395;48.132;11.608;2023-03-14T15:29:15;10.10;1.40
827;DHT22;395;48.132;11.608;2023-03-14T15:31:41;10.10;1.70
827;DHT22;395;48.132;11.608;2023-03-14T15:34:09;10.00;1.40
827;DHT22;395;48.132;11.608;2023-03-14T15:36:35;9.90;2.80
827;DHT22;395;48.132;11.608;2023-03-14T15:39:03;9.90;4.10
827;DHT22;395;48.132;11.608;2023-03-14T15:41:29;9.90;5.50
827;DHT22;395;48.132;11.608;2023-03-14T15:43:54;9.80;7.00
827;DHT22;395;48.132;11.608;2023-03-14T15:46:20;9.60;9.00
827;DHT22;395;48.132;11.608;2023-03-14T15:48:48;9.50;9.80
827;DHT22;395;48.132;11.608;2023-03-14T15:51:14;9.50;10.60
827;DHT22;395;48.132;11.608;2023-03-14T15:53:40;9.50;9.00
827;DHT22;395;48.132;11.608;2023-03-14T15:56:09;9.20;12.10
827;DHT22;395;48.132;11.608;2023-03-14T15:58:36;9.10;11.10
827;DHT22;395;48.132;11.608;2023-03-14T16:01:06;8.80;8.00
827;DHT22;395;48.132;11.608;2023-03-14T16:03:34;8.80;6.00
827;DHT22;395;48.132;11.608;2023-03-14T16:05:59;8.60;5.00
827;DHT22;395;48.132;11.608;2023-03-14T16:08:25;8.60;3.90
827;DHT22;395;48.132;11.608;2023-03-14T16:10:51;8.60;1.60
827;DHT22;395;48.132;11.608;2023-03-14T16:13:18;8.50;1.00
827;DHT22;395;48.132;11.608;2023-03-14T16:15:59;8.40;1.00
827;DHT22;395;48.132;11.608;2023-03-14T16:18:28;8.50;1.70
827;DHT22;395;48.132;11.608;2023-03-14T16:20:59;8.50;1.20
827;DHT22;395;48.132;11.608;2023-03-14T16:23:26;8.50;1.00
827;DHT22;395;48.132;11.608;2023-03-14T16:25:52;8.60;1.00
827;DHT22;395;48.132;11.608;2023-03-14T16:28:19;8.60;1.00
827;DHT22;395;48.132;11.608;2023-03-14T16:30:45;8.60;1.00
827;DHT22;395;48.132;11.608;2023-03-14T16:33:12;8.60;1.00
827;DHT22;395;48.132;11.608;2023-03-14T16:35:41;8.60;1.00
827;DHT22;395;48.132;11.608;2023-03-14T16:38:07;8.70;1.00
827;DHT22;395;48.132;11.608;2023-03-14T16:40:33;8.70;1.00
827;DHT22;395;48.132;11.608;2023-03-14T16:42:58;8.60;1.00
827;DHT22;395;48.132;11.608;2023-03-14T16:45:24;8.60;1.00
827;DHT22;395;48.132;11.608;2023-03-14T16:47:50;8.70;1.00
827;DHT22;395;48.132;11.608;2023-03-14T16:50:16;8.50;1.00
827;DHT22;395;48.132;11.608;2023-03-14T16:52:41;8.60;1.00
827;DHT22;395;48.132;11.608;2023-03-14T16:55:09;8.50;1.00
827;DHT22;395;48.132;11.608;2023-03-14T16:57:35;8.70;1.00
827;DHT22;395;48.132;11.608;2023-03-14T17:00:00;8.70;1.00
827;DHT22;395;48.132;11.608;2023-03-14T17:02:26;8.60;1.00
827;DHT22;395;48.132;11.608;2023-03-14T17:04:51;8.80;1.00
827;DHT22;395;48.132;11.608;2023-03-14T17:07:17;8.70;1.00
827;DHT22;395;48.132;11.608;2023-03-14T17:09:43;8.80;1.00
827;DHT22;395;48.132;11.608;2023-03-14T17:12:08;8.70;1.00
827;DHT22;395;48.132;11.608;2023-03-14T17:14:34;8.70;1.00
827;DHT22;395;48.132;11.608;2023-03-14T17:16:59;8.70;1.00
827;DHT22;395;48.132;11.608;2023-03-14T17:19:25;8.70;1.00
827;DHT22;395;48.132;11.608;2023-03-14T17:21:51;8.70;1.00
827;DHT22;395;48.132;11.608;2023-03-14T17:24:16;8.70;1.00
827;DHT22;395;48.132;11.608;2023-03-14T17:26:43;8.70;1.00
827;DHT22;395;48.132;11.608;2023-03-14T17:29:09;8.70;1.00
827;DHT22;395;48.132;11.608;2023-03-14T17:31:35;8.60;1.00
827;DHT22;395;48.132;11.608;2023-03-14T17:34:00;8.60;1.00
827;DHT22;395;48.132;11.608;2023-03-14T17:36:26;8.60;1.00
827;DHT22;395;48.132;11.608;2023-03-14T17:38:55;8.50;1.00
827;DHT22;395;48.132;11.608;2023-03-14T17:41:20;8.50;1.00
827;DHT22;395;48.132;11.608;2023-03-14T17:43:46;8.70;1.00